createdAt,value
2019-04-03T00:00:51.275Z,68.70
2019-04-03T00:01:51.218Z,69.60
2019-04-03T00:02:51.268Z,64.50
2019-04-03T00:03:51.163Z,65.80
2019-04-03T00:04:51.167Z,63.90
2019-04-03T00:05:51.141Z,65.10
2019-04-03T00:06:51.160Z,66.30
2019-04-03T00:07:51.121Z,67.00
2019-04-03T00:08:51.108Z,67.00
2019-04-03T00:09:51.247Z,67.50
2019-04-03T00:10:51.090Z,67.20
2019-04-03T00:11:51.079Z,69.80
2019-04-03T00:12:51.089Z,69.50
2019-04-03T00:13:51.061Z,67.90
2019-04-03T00:14:51.065Z,68.60
2019-04-03T00:15:51.034Z,67.90
2019-04-03T00:16:51.030Z,67.30
2019-04-03T00:17:51.015Z,72.20
2019-04-03T00:18:51.030Z,71.00
2019-04-03T00:19:50.997Z,71.30
2019-04-03T00:20:50.999Z,71.20
2019-04-03T00:21:51.172Z,67.20
2019-04-03T00:22:51.923Z,70.40
2019-04-03T00:23:52.599Z,70.10
2019-04-03T00:24:52.593Z,71.20
2019-04-03T00:25:52.359Z,68.80
2019-04-03T00:26:52.805Z,68.20
2019-04-03T00:27:52.522Z,68.50
2019-04-03T00:28:52.285Z,71.90
2019-04-03T00:29:52.188Z,72.60
2019-04-03T00:30:52.452Z,74.00
2019-04-03T00:31:53.064Z,75.80
2019-04-03T00:32:53.164Z,75.20
2019-04-03T00:33:51.643Z,76.40
2019-04-03T00:34:51.745Z,75.90
2019-04-03T00:35:51.692Z,73.60
2019-04-03T00:36:52.919Z,76.80
2019-04-03T00:37:52.986Z,78.00
2019-04-03T00:38:50.797Z,77.50
2019-04-03T00:39:50.789Z,78.30
2019-04-03T00:40:50.803Z,76.50
2019-04-03T00:41:50.764Z,72.60
2019-04-03T00:42:50.751Z,75.00
2019-04-03T00:43:50.734Z,80.70
2019-04-03T00:44:50.851Z,80.90
2019-04-03T00:45:50.749Z,82.30
2019-04-03T00:46:50.704Z,76.70
2019-04-03T00:47:50.699Z,80.00
2019-04-03T00:48:50.841Z,78.50
2019-04-03T00:49:50.682Z,79.60
2019-04-03T00:50:50.787Z,81.10
2019-04-03T00:51:50.673Z,78.30
2019-04-03T00:52:50.657Z,81.20
2019-04-03T00:53:50.683Z,78.00
2019-04-03T00:54:50.631Z,79.90
2019-04-03T00:55:50.623Z,86.90
2019-04-03T00:56:50.655Z,84.30
2019-04-03T00:57:50.600Z,84.00
2019-04-03T00:58:50.575Z,82.40
2019-04-03T00:59:50.579Z,86.00
2019-04-03T01:00:50.553Z,87.00
2019-04-03T01:01:50.561Z,82.30
2019-04-03T01:02:50.547Z,81.90
2019-04-03T01:03:50.530Z,84.10
2019-04-03T01:04:50.537Z,84.00
2019-04-03T01:05:50.556Z,82.50
2019-04-03T01:06:50.511Z,82.60
2019-04-03T01:07:50.487Z,82.80
2019-04-03T01:08:50.506Z,76.80
2019-04-03T01:09:50.483Z,81.60
2019-04-03T01:10:50.467Z,80.10
2019-04-03T01:11:50.450Z,86.40
2019-04-03T01:12:50.549Z,84.10
2019-04-03T01:13:50.444Z,84.90
2019-04-03T01:14:50.407Z,85.00
2019-04-03T01:15:50.404Z,82.50
2019-04-03T01:16:50.441Z,85.40
2019-04-03T01:17:50.378Z,81.70
2019-04-03T01:18:50.367Z,87.80
2019-04-03T01:19:50.388Z,82.50
2019-04-03T01:20:50.346Z,82.50
2019-04-03T01:21:50.335Z,84.80
2019-04-03T01:22:50.345Z,81.80
2019-04-03T01:23:50.313Z,89.80
2019-04-03T01:24:50.334Z,83.70
2019-04-03T01:25:50.289Z,80.00
2019-04-03T01:26:50.294Z,82.10
2019-04-03T01:27:50.277Z,82.00
2019-04-03T01:28:50.323Z,79.90
2019-04-03T01:29:50.248Z,77.40
2019-04-03T01:30:50.265Z,81.90
2019-04-03T01:31:50.359Z,82.90
2019-04-03T01:32:50.215Z,79.70
2019-04-03T01:33:50.218Z,80.30
2019-04-03T01:34:50.211Z,80.60
2019-04-03T01:35:50.187Z,77.90
2019-04-03T01:36:50.213Z,71.80
2019-04-03T01:37:50.222Z,66.80
2019-04-03T01:38:50.367Z,59.50
2019-04-03T01:39:50.851Z,56.00
2019-04-03T01:40:50.580Z,53.80
2019-04-03T01:41:51.460Z,57.30
2019-04-03T01:42:52.576Z,54.50
2019-04-03T01:43:50.127Z,52.00
2019-04-03T01:44:50.107Z,51.70
2019-04-03T01:45:50.085Z,54.50
2019-04-03T01:46:50.093Z,54.60
2019-04-03T01:47:50.105Z,56.70
2019-04-03T01:48:50.042Z,57.50
2019-04-03T01:49:50.034Z,58.50
2019-04-03T01:50:50.029Z,56.80
2019-04-03T01:51:50.044Z,58.30
2019-04-03T01:52:50.048Z,59.40
2019-04-03T01:53:49.993Z,57.60
2019-04-03T01:54:50.177Z,59.80
2019-04-03T01:55:49.969Z,61.10
2019-04-03T01:56:49.988Z,59.90
2019-04-03T01:57:49.984Z,60.20
2019-04-03T01:58:49.942Z,55.40
2019-04-03T01:59:49.928Z,57.50
2019-04-03T02:00:50.135Z,57.00
2019-04-03T02:01:49.927Z,60.80
2019-04-03T02:02:50.039Z,58.70
2019-04-03T02:03:49.907Z,60.90
2019-04-03T02:04:49.876Z,56.60
2019-04-03T02:05:49.861Z,53.80
2019-04-03T02:06:49.850Z,52.60
2019-04-03T02:07:49.860Z,50.30
2019-04-03T02:08:50.168Z,55.30
2019-04-03T02:09:49.833Z,56.30
2019-04-03T02:10:49.808Z,51.90
2019-04-03T02:11:49.869Z,53.70
2019-04-03T02:12:51.251Z,50.50
2019-04-03T02:13:51.280Z,52.00
2019-04-03T02:14:51.701Z,56.80
2019-04-03T02:15:52.141Z,57.00
2019-04-03T02:16:49.744Z,55.80
2019-04-03T02:17:49.774Z,51.10
2019-04-03T02:18:49.726Z,54.30
2019-04-03T02:19:49.733Z,56.30
2019-04-03T02:20:49.825Z,58.30
2019-04-03T02:21:49.705Z,56.90
2019-04-03T02:22:49.818Z,53.10
2019-04-03T02:23:49.694Z,55.50
2019-04-03T02:24:49.818Z,54.30
2019-04-03T02:25:49.672Z,60.70
2019-04-03T02:26:49.637Z,57.60
2019-04-03T02:27:49.631Z,57.00
2019-04-03T02:28:49.614Z,59.60
2019-04-03T02:29:50.058Z,59.80
2019-04-03T02:30:49.599Z,61.80
2019-04-03T02:31:52.647Z,63.00
2019-04-03T02:32:49.573Z,62.50
2019-04-03T02:33:49.590Z,57.20
2019-04-03T02:34:49.552Z,56.70
2019-04-03T02:35:49.544Z,58.40
2019-04-03T02:36:49.531Z,56.10
2019-04-03T02:37:50.668Z,57.70
2019-04-03T02:38:51.530Z,56.40
2019-04-03T02:39:49.525Z,57.40
2019-04-03T02:40:49.492Z,57.70
2019-04-03T02:41:49.592Z,56.30
2019-04-03T02:42:49.473Z,55.50
2019-04-03T02:43:49.481Z,56.10
2019-04-03T02:44:51.230Z,56.60
2019-04-03T02:45:49.434Z,60.20
2019-04-03T02:46:49.426Z,55.30
2019-04-03T02:47:49.411Z,58.30
2019-04-03T02:48:49.419Z,60.30
2019-04-03T02:49:49.387Z,55.20
2019-04-03T02:50:49.629Z,55.60
2019-04-03T02:51:51.787Z,54.10
2019-04-03T02:52:49.420Z,57.60
2019-04-03T02:53:49.361Z,55.40
2019-04-03T02:54:49.339Z,63.20
2019-04-03T02:55:49.326Z,57.30
2019-04-03T02:56:49.320Z,57.30
2019-04-03T02:57:49.991Z,61.30
2019-04-03T02:58:49.336Z,57.80
2019-04-03T02:59:49.554Z,58.60
2019-04-03T03:00:49.487Z,56.90
2019-04-03T03:01:49.261Z,56.40
2019-04-03T03:02:49.474Z,52.30
2019-04-03T03:03:50.069Z,51.90
2019-04-03T03:04:49.347Z,54.50
2019-04-03T03:05:49.303Z,58.40
2019-04-03T03:06:49.218Z,59.10
2019-04-03T03:07:49.197Z,61.10
2019-04-03T03:08:49.204Z,57.50
2019-04-03T03:09:49.263Z,60.20
2019-04-03T03:10:51.793Z,60.10
2019-04-03T03:11:49.763Z,54.50
2019-04-03T03:12:49.165Z,59.20
2019-04-03T03:13:49.128Z,56.70
2019-04-03T03:14:49.287Z,60.00
2019-04-03T03:15:49.122Z,62.10
2019-04-03T03:16:50.318Z,59.80
2019-04-03T03:17:49.093Z,59.60
2019-04-03T03:18:49.088Z,54.00
2019-04-03T03:19:49.095Z,54.40
2019-04-03T03:20:49.055Z,52.10
2019-04-03T03:21:49.043Z,58.10
2019-04-03T03:22:50.502Z,52.80
2019-04-03T03:23:49.040Z,58.90
2019-04-03T03:24:49.006Z,53.30
2019-04-03T03:25:49.045Z,50.00
2019-04-03T03:26:49.163Z,56.70
2019-04-03T03:27:48.977Z,54.10
2019-04-03T03:28:48.977Z,57.60
2019-04-03T03:29:48.983Z,54.00
2019-04-03T03:30:58.550Z,49.40
2019-04-03T03:32:09.224Z,53.30
2019-04-03T03:32:49.955Z,51.70
2019-04-03T03:33:48.939Z,50.00
2019-04-03T03:34:57.848Z,48.30
2019-04-03T03:35:51.547Z,49.20
2019-04-03T03:36:48.993Z,55.00
2019-04-03T03:37:48.870Z,55.90
2019-04-03T03:38:48.860Z,53.40
2019-04-03T03:39:48.872Z,52.00
2019-04-03T03:40:49.442Z,51.40
2019-04-03T03:41:48.963Z,57.70
2019-04-03T03:42:49.237Z,54.70
2019-04-03T03:43:48.860Z,58.30
2019-04-03T03:44:48.811Z,56.00
2019-04-03T03:45:51.406Z,56.20
2019-04-03T03:46:48.770Z,53.30
2019-04-03T03:47:48.904Z,53.80
2019-04-03T03:48:49.101Z,53.80
2019-04-03T03:49:50.181Z,54.00
2019-04-03T03:50:48.848Z,49.50
2019-04-03T03:51:49.167Z,53.10
2019-04-03T03:52:48.710Z,49.80
2019-04-03T03:53:48.697Z,55.60
2019-04-03T03:54:51.091Z,56.70
2019-04-03T03:55:48.741Z,56.40
2019-04-03T03:56:48.684Z,58.70
2019-04-03T03:57:48.651Z,50.60
2019-04-03T03:58:48.763Z,45.50
2019-04-03T03:59:51.114Z,48.90
2019-04-03T04:00:52.186Z,48.20
2019-04-03T04:01:48.739Z,54.80
2019-04-03T04:02:48.640Z,48.60
2019-04-03T04:03:48.926Z,49.10
2019-04-03T04:04:49.327Z,53.60
2019-04-03T04:05:48.577Z,52.60
2019-04-03T04:06:48.560Z,52.30
2019-04-03T04:07:48.828Z,49.90
2019-04-03T04:08:48.536Z,56.10
2019-04-03T04:09:50.561Z,55.00
2019-04-03T04:10:48.532Z,53.40
2019-04-03T04:11:48.615Z,56.60
2019-04-03T04:12:48.501Z,56.20
2019-04-03T04:13:49.774Z,55.50
2019-04-03T04:14:48.742Z,54.20
2019-04-03T04:15:48.460Z,55.20
2019-04-03T04:16:48.581Z,55.30
2019-04-03T04:17:50.049Z,50.40
2019-04-03T04:18:48.431Z,49.90
2019-04-03T04:19:48.465Z,52.90
2019-04-03T04:20:48.412Z,57.10
2019-04-03T04:21:48.395Z,58.60
2019-04-03T04:22:50.744Z,55.60
2019-04-03T04:23:48.374Z,56.90
2019-04-03T04:24:48.389Z,54.10
2019-04-03T04:25:48.348Z,52.00
2019-04-03T04:26:49.895Z,52.00
2019-04-03T04:27:48.329Z,48.30
2019-04-03T04:28:48.319Z,47.20
2019-04-03T04:29:48.326Z,48.90
2019-04-03T04:30:48.296Z,47.50
2019-04-03T04:31:48.286Z,54.30
2019-04-03T04:32:48.292Z,50.10
2019-04-03T04:33:48.460Z,63.50
2019-04-03T04:34:49.995Z,64.60
2019-04-03T04:35:51.667Z,57.40
2019-04-03T04:36:48.280Z,60.50
2019-04-03T04:37:48.223Z,56.10
2019-04-03T04:38:48.213Z,56.20
2019-04-03T04:39:48.218Z,56.50
2019-04-03T04:40:48.208Z,56.00
2019-04-03T04:41:48.218Z,56.80
2019-04-03T04:42:48.176Z,62.40
2019-04-03T04:43:48.162Z,61.30
2019-04-03T04:44:48.163Z,63.60
2019-04-03T04:45:48.154Z,62.30
2019-04-03T04:46:48.153Z,65.00
2019-04-03T04:47:48.128Z,59.10
2019-04-03T04:48:48.189Z,60.50
2019-04-03T04:49:48.140Z,60.50
2019-04-03T04:50:48.088Z,63.10
2019-04-03T04:51:48.243Z,67.00
2019-04-03T04:52:48.071Z,69.10
2019-04-03T04:53:48.148Z,63.50
2019-04-03T04:54:48.378Z,61.30
2019-04-03T04:55:48.055Z,56.30
2019-04-03T04:56:48.057Z,56.50
2019-04-03T04:57:48.023Z,60.00
2019-04-03T04:58:48.242Z,57.60
2019-04-03T04:59:47.992Z,60.70
2019-04-03T05:00:48.314Z,59.90
2019-04-03T05:01:49.171Z,59.40
2019-04-03T05:02:50.372Z,61.40
2019-04-03T05:03:47.949Z,62.70
2019-04-03T05:04:47.950Z,67.40
2019-04-03T05:05:48.094Z,68.20
2019-04-03T05:06:47.943Z,62.40
2019-04-03T05:07:48.014Z,63.50
2019-04-03T05:08:47.896Z,56.40
2019-04-03T05:09:47.883Z,62.70
2019-04-03T05:10:49.094Z,55.40
2019-04-03T05:11:48.147Z,56.80
2019-04-03T05:12:47.855Z,55.50
2019-04-03T05:13:47.952Z,53.80
2019-04-03T05:14:48.855Z,56.30
2019-04-03T05:15:47.860Z,62.60
2019-04-03T05:16:47.821Z,63.70
2019-04-03T05:17:50.499Z,67.40
2019-04-03T05:18:47.790Z,60.10
2019-04-03T05:19:48.928Z,58.80
2019-04-03T05:20:48.828Z,64.40
2019-04-03T05:21:47.901Z,62.90
2019-04-03T05:22:47.749Z,66.30
2019-04-03T05:23:47.753Z,61.70
2019-04-03T05:24:47.746Z,59.70
2019-04-03T05:25:47.723Z,60.60
2019-04-03T05:26:47.730Z,57.10
2019-04-03T05:27:47.712Z,66.90
2019-04-03T05:28:54.618Z,70.10
2019-04-03T05:29:48.710Z,61.90
2019-04-03T05:30:47.781Z,63.40
2019-04-03T05:31:47.661Z,72.10
2019-04-03T05:32:47.677Z,66.10
2019-04-03T05:33:47.649Z,69.80
2019-04-03T05:34:47.618Z,70.00
2019-04-03T05:35:47.766Z,80.30
2019-04-03T05:36:48.561Z,70.80
2019-04-03T05:37:50.347Z,70.50
2019-04-03T05:38:47.585Z,69.70
2019-04-03T05:39:47.586Z,71.80
2019-04-03T05:40:47.589Z,67.50
2019-04-03T05:41:47.688Z,71.00
2019-04-03T05:42:47.541Z,71.70
2019-04-03T05:43:47.536Z,77.20
2019-04-03T05:44:47.518Z,71.70
2019-04-03T05:45:47.547Z,76.60
2019-04-03T05:46:47.583Z,76.80
2019-04-03T05:47:47.787Z,71.00
2019-04-03T05:48:48.007Z,78.00
2019-04-03T05:49:49.045Z,68.30
2019-04-03T05:50:47.454Z,73.40
2019-04-03T05:51:47.442Z,75.80
2019-04-03T05:52:47.453Z,69.80
2019-04-03T05:53:47.438Z,74.20
2019-04-03T05:54:47.627Z,66.20
2019-04-03T05:55:47.419Z,69.80
2019-04-03T05:56:47.634Z,74.00
2019-04-03T05:57:47.394Z,69.10
2019-04-03T05:58:55.457Z,73.30
2019-04-03T05:59:58.963Z,74.60
2019-04-03T06:00:48.397Z,77.10
2019-04-03T06:01:47.340Z,76.80
2019-04-03T06:02:47.426Z,77.20
2019-04-03T06:03:47.323Z,82.30
2019-04-03T06:04:47.368Z,76.10
2019-04-03T06:05:47.314Z,76.90
2019-04-03T06:06:47.541Z,68.40
2019-04-03T06:07:49.610Z,68.20
2019-04-03T06:08:47.465Z,72.70
2019-04-03T06:09:47.252Z,71.00
2019-04-03T06:10:47.269Z,72.40
2019-04-03T06:11:47.392Z,67.30
2019-04-03T06:12:47.253Z,63.90
2019-04-03T06:13:48.038Z,71.60
2019-04-03T06:14:49.574Z,70.90
2019-04-03T06:15:47.400Z,70.00
2019-04-03T06:16:47.239Z,69.90
2019-04-03T06:17:50.169Z,67.00
2019-04-03T06:18:47.712Z,66.60
2019-04-03T06:19:47.166Z,67.00
2019-04-03T06:20:47.360Z,67.50
2019-04-03T06:21:47.127Z,62.60
2019-04-03T06:22:47.919Z,67.90
2019-04-03T06:23:47.198Z,73.50
2019-04-03T06:24:47.117Z,63.00
2019-04-03T06:25:47.079Z,57.30
2019-04-03T06:26:47.088Z,62.30
2019-04-03T06:27:47.158Z,58.30
2019-04-03T06:28:47.852Z,61.00
2019-04-03T06:29:47.039Z,55.80
2019-04-03T06:30:47.063Z,61.50
2019-04-03T06:31:47.028Z,66.10
2019-04-03T06:32:47.040Z,62.80
2019-04-03T06:33:47.001Z,67.80
2019-04-03T06:34:46.990Z,60.80
2019-04-03T06:35:46.983Z,63.70
2019-04-03T06:36:49.675Z,65.00
2019-04-03T06:37:47.058Z,57.80
2019-04-03T06:38:46.944Z,59.80
2019-04-03T06:39:46.987Z,65.70
2019-04-03T06:40:47.737Z,63.40
2019-04-03T06:41:46.965Z,60.50
2019-04-03T06:42:46.930Z,52.00
2019-04-03T06:43:49.102Z,50.40
2019-04-03T06:44:46.889Z,51.20
2019-04-03T06:45:47.790Z,55.60
2019-04-03T06:46:46.865Z,65.70
2019-04-03T06:47:46.928Z,64.00
2019-04-03T06:48:47.084Z,72.60
2019-04-03T06:49:47.735Z,72.90
2019-04-03T06:50:46.951Z,61.60
2019-04-03T06:51:48.913Z,66.60
2019-04-03T06:52:47.359Z,63.80
2019-04-03T06:53:47.110Z,67.00
2019-04-03T06:54:46.773Z,66.50
2019-04-03T06:55:46.774Z,72.80
2019-04-03T06:56:46.818Z,78.50
2019-04-03T06:57:46.771Z,77.70
2019-04-03T06:58:46.998Z,79.40
2019-04-03T06:59:48.766Z,78.40
2019-04-03T07:00:47.374Z,76.40
2019-04-03T07:01:46.694Z,80.00
2019-04-03T07:02:47.386Z,80.40
2019-04-03T07:03:46.921Z,74.90
2019-04-03T07:04:46.709Z,79.70
2019-04-03T07:05:47.372Z,79.90
2019-04-03T07:06:47.303Z,84.40
2019-04-03T07:07:46.638Z,82.00
2019-04-03T07:08:46.624Z,81.70
2019-04-03T07:09:46.616Z,86.10
2019-04-03T07:10:54.976Z,84.80
2019-04-03T07:11:46.622Z,80.20
2019-04-03T07:12:48.173Z,83.10
2019-04-03T07:13:47.232Z,77.50
2019-04-03T07:14:47.239Z,81.20
2019-04-03T07:15:47.354Z,76.20
2019-04-03T07:16:46.588Z,70.60
2019-04-03T07:17:46.640Z,79.40
2019-04-03T07:18:46.568Z,71.40
2019-04-03T07:19:46.505Z,71.50
2019-04-03T07:20:47.368Z,68.70
2019-04-03T07:21:46.485Z,71.30
2019-04-03T07:22:46.475Z,68.40
2019-04-03T07:23:46.493Z,67.20
2019-04-03T07:24:46.510Z,67.50
2019-04-03T07:25:46.720Z,64.90
2019-04-03T07:26:46.445Z,67.70
2019-04-03T07:27:46.456Z,67.60
2019-04-03T07:28:46.455Z,65.20
2019-04-03T07:29:49.050Z,67.30
2019-04-03T07:30:46.396Z,59.20
2019-04-03T07:31:46.378Z,63.00
2019-04-03T07:32:46.385Z,62.00
2019-04-03T07:33:47.281Z,56.00
2019-04-03T07:34:46.551Z,63.00
2019-04-03T07:35:46.336Z,60.20
2019-04-03T07:36:46.775Z,62.20
2019-04-03T07:37:46.372Z,59.90
2019-04-03T07:38:46.448Z,59.20
2019-04-03T07:39:47.752Z,59.80
2019-04-03T07:40:46.498Z,61.20
2019-04-03T07:41:46.349Z,61.90
2019-04-03T07:42:46.330Z,57.20
2019-04-03T07:43:46.245Z,58.30
2019-04-03T07:44:46.306Z,59.50
2019-04-03T07:45:46.875Z,56.40
2019-04-03T07:46:46.282Z,60.30
2019-04-03T07:47:46.269Z,60.20
2019-04-03T07:48:46.904Z,57.30
2019-04-03T07:49:46.252Z,62.00
2019-04-03T07:50:46.250Z,60.50
2019-04-03T07:51:46.801Z,63.60
2019-04-03T07:52:48.347Z,58.00
2019-04-03T07:53:46.793Z,57.30
2019-04-03T07:54:46.255Z,56.60
2019-04-03T07:55:46.169Z,58.70
2019-04-03T07:56:46.386Z,62.60
2019-04-03T07:57:46.184Z,64.30
2019-04-03T07:58:46.114Z,64.60
2019-04-03T07:59:46.129Z,66.40
2019-04-03T08:00:46.248Z,65.50
2019-04-03T08:01:46.744Z,66.20
2019-04-03T08:02:48.618Z,63.00
2019-04-03T08:03:46.299Z,56.90
2019-04-03T08:04:46.038Z,58.20
2019-04-03T08:05:46.055Z,55.60
2019-04-03T08:06:46.023Z,63.50
2019-04-03T08:07:46.259Z,61.50
2019-04-03T08:08:45.981Z,63.50
2019-04-03T08:09:46.072Z,61.40
2019-04-03T08:10:46.042Z,55.20
2019-04-03T08:11:45.950Z,57.40
2019-04-03T08:12:46.123Z,54.50
2019-04-03T08:13:45.969Z,57.90
2019-04-03T08:14:45.986Z,58.90
2019-04-03T08:15:46.808Z,57.70
2019-04-03T08:16:47.993Z,54.10
2019-04-03T08:17:45.961Z,57.80
2019-04-03T08:18:46.736Z,58.30
2019-04-03T08:19:46.076Z,58.50
2019-04-03T08:20:46.437Z,55.10
2019-04-03T08:21:45.918Z,56.10
2019-04-03T08:22:46.801Z,49.70
2019-04-03T08:23:46.040Z,53.40
2019-04-03T08:24:45.946Z,51.40
2019-04-03T08:25:48.408Z,49.80
2019-04-03T08:26:45.861Z,50.00
2019-04-03T08:27:47.087Z,47.60
2019-04-03T08:28:45.806Z,51.90
2019-04-03T08:29:46.735Z,45.20
2019-04-03T08:30:46.255Z,47.60
2019-04-03T08:31:48.373Z,49.80
2019-04-03T08:32:48.527Z,48.60
2019-04-03T08:33:45.789Z,53.50
2019-04-03T08:34:47.415Z,52.90
2019-04-03T08:35:45.739Z,56.60
2019-04-03T08:36:45.711Z,58.50
2019-04-03T08:37:45.678Z,56.80
2019-04-03T08:38:45.820Z,58.10
2019-04-03T08:39:48.440Z,58.80
2019-04-03T08:40:45.821Z,60.50
2019-04-03T08:41:45.661Z,60.10
2019-04-03T08:42:45.621Z,61.00
2019-04-03T08:43:45.617Z,60.50
2019-04-03T08:44:46.243Z,64.00
2019-04-03T08:45:45.606Z,60.50
2019-04-03T08:46:46.416Z,61.60
2019-04-03T08:47:46.574Z,61.10
2019-04-03T08:48:45.604Z,64.50
2019-04-03T08:49:45.571Z,65.80
2019-04-03T08:50:45.618Z,67.60
2019-04-03T08:51:45.525Z,66.90
2019-04-03T08:52:46.447Z,60.30
2019-04-03T08:53:46.294Z,57.40
2019-04-03T08:54:45.570Z,54.00
2019-04-03T08:55:46.457Z,56.30
2019-04-03T08:56:48.316Z,55.90
2019-04-03T08:57:46.912Z,55.80
2019-04-03T08:58:46.022Z,60.20
2019-04-03T08:59:45.493Z,58.90
2019-04-03T09:00:45.499Z,58.40
2019-04-03T09:01:46.237Z,61.80
2019-04-03T09:02:45.450Z,62.10
2019-04-03T09:03:45.681Z,59.20
2019-04-03T09:04:47.509Z,63.70
2019-04-03T09:05:45.389Z,60.90
2019-04-03T09:06:45.356Z,53.30
2019-04-03T09:07:45.348Z,59.20
2019-04-03T09:08:45.579Z,56.70
2019-04-03T09:09:45.518Z,57.10
2019-04-03T09:10:45.393Z,55.40
2019-04-03T09:11:45.300Z,55.40
2019-04-03T09:12:46.481Z,55.10
2019-04-03T09:13:45.293Z,50.50
2019-04-03T09:14:45.355Z,52.90
2019-04-03T09:15:45.267Z,52.50
2019-04-03T09:16:45.269Z,49.60
2019-04-03T09:17:45.240Z,46.90
2019-04-03T09:18:45.372Z,46.70
2019-04-03T09:19:45.234Z,46.00
2019-04-03T09:20:45.538Z,43.90
2019-04-03T09:21:50.057Z,43.90
2019-04-03T09:22:45.188Z,43.50
2019-04-03T09:23:45.478Z,45.60
2019-04-03T09:24:45.260Z,44.50
2019-04-03T09:25:45.161Z,45.80
2019-04-03T09:26:45.271Z,46.10
2019-04-03T09:27:45.146Z,42.00
2019-04-03T09:28:45.121Z,46.70
2019-04-03T09:29:45.867Z,42.30
2019-04-03T09:30:46.952Z,49.90
2019-04-03T09:31:45.212Z,42.80
2019-04-03T09:32:45.476Z,41.60
2019-04-03T09:33:45.093Z,43.80
2019-04-03T09:34:45.061Z,39.80
2019-04-03T09:35:45.162Z,47.10
2019-04-03T09:36:45.084Z,46.90
2019-04-03T09:37:46.140Z,44.10
2019-04-03T09:38:45.097Z,47.40
2019-04-03T09:39:45.997Z,44.90
2019-04-03T09:40:47.249Z,48.20
2019-04-03T09:41:45.005Z,45.00
2019-04-03T09:42:44.968Z,47.90
2019-04-03T09:43:45.263Z,49.20
2019-04-03T09:44:44.963Z,44.30
2019-04-03T09:45:44.969Z,47.50
2019-04-03T09:46:45.340Z,43.20
2019-04-03T09:47:44.929Z,46.90
2019-04-03T09:48:44.909Z,43.60
2019-04-03T09:49:44.904Z,45.90
2019-04-03T09:50:46.366Z,44.30
2019-04-03T09:51:45.157Z,41.30
2019-04-03T09:52:48.975Z,43.20
2019-04-03T09:53:46.928Z,41.20
2019-04-03T09:54:45.280Z,44.80
2019-04-03T09:55:44.889Z,48.60
2019-04-03T09:56:57.165Z,41.90
2019-04-03T09:57:45.837Z,43.00
2019-04-03T09:58:44.874Z,40.50
2019-04-03T09:59:45.052Z,43.30
2019-04-03T10:00:44.782Z,40.50
2019-04-03T10:01:45.708Z,46.60
2019-04-03T10:02:44.808Z,41.90
2019-04-03T10:03:44.750Z,43.00
2019-04-03T10:04:44.742Z,46.30
2019-04-03T10:05:45.128Z,40.10
2019-04-03T10:06:44.877Z,42.60
2019-04-03T10:07:44.930Z,43.50
2019-04-03T10:08:44.771Z,44.90
2019-04-03T10:09:44.956Z,44.60
2019-04-03T10:10:46.484Z,40.10
2019-04-03T10:11:44.659Z,43.50
2019-04-03T10:12:47.297Z,40.30
2019-04-03T10:13:45.066Z,42.30
2019-04-03T10:14:44.974Z,39.90
2019-04-03T10:15:44.737Z,44.40
2019-04-03T10:16:44.668Z,40.70
2019-04-03T10:17:44.654Z,39.50
2019-04-03T10:18:44.669Z,38.80
2019-04-03T10:19:45.575Z,40.40
2019-04-03T10:20:44.603Z,41.10
2019-04-03T10:21:44.552Z,44.30
2019-04-03T10:22:45.251Z,46.30
2019-04-03T10:23:44.562Z,45.30
2019-04-03T10:24:44.519Z,45.90
2019-04-03T10:25:44.732Z,46.50
2019-04-03T10:26:44.824Z,43.90
2019-04-03T10:27:44.659Z,46.00
2019-04-03T10:28:46.893Z,49.70
2019-04-03T10:29:44.472Z,47.90
2019-04-03T10:30:44.494Z,50.20
2019-04-03T10:31:44.448Z,53.50
2019-04-03T10:32:44.621Z,48.50
2019-04-03T10:33:44.594Z,50.20
2019-04-03T10:34:44.633Z,44.70
2019-04-03T10:35:46.914Z,40.10
2019-04-03T10:36:44.395Z,41.70
2019-04-03T10:37:46.629Z,40.70
2019-04-03T10:38:44.370Z,41.70
2019-04-03T10:39:44.913Z,41.30
2019-04-03T10:40:44.458Z,42.20
2019-04-03T10:41:44.350Z,45.60
2019-04-03T10:42:44.324Z,42.20
2019-04-03T10:43:44.339Z,44.40
2019-04-03T10:44:44.382Z,43.60
2019-04-03T10:45:44.319Z,46.00
2019-04-03T10:46:44.492Z,45.40
2019-04-03T10:47:44.873Z,47.50
2019-04-03T10:48:44.689Z,41.00
2019-04-03T10:49:44.270Z,43.60
2019-04-03T10:50:44.234Z,41.40
2019-04-03T10:51:44.317Z,41.90
2019-04-03T10:52:47.695Z,38.40
2019-04-03T10:53:44.216Z,38.40
2019-04-03T10:54:44.201Z,40.90
2019-04-03T10:55:44.294Z,39.80
2019-04-03T10:56:44.221Z,43.00
2019-04-03T10:57:44.163Z,41.50
2019-04-03T10:58:44.357Z,44.10
2019-04-03T10:59:44.220Z,46.30
2019-04-03T11:00:44.132Z,43.80
2019-04-03T11:01:44.117Z,43.00
2019-04-03T11:02:45.108Z,45.70
2019-04-03T11:03:44.095Z,43.20
2019-04-03T11:04:44.195Z,42.80
2019-04-03T11:05:44.076Z,42.70
2019-04-03T11:06:44.352Z,42.00
2019-04-03T11:07:44.805Z,40.40
2019-04-03T11:08:44.175Z,39.10
2019-04-03T11:09:44.033Z,37.50
2019-04-03T11:10:44.248Z,34.20
2019-04-03T11:11:44.169Z,35.90
2019-04-03T11:12:44.288Z,32.70
2019-04-03T11:13:44.015Z,32.30
2019-04-03T11:14:44.008Z,30.60
2019-04-03T11:15:45.030Z,33.10
2019-04-03T11:16:46.502Z,33.60
2019-04-03T11:17:44.090Z,34.70
2019-04-03T11:18:43.938Z,31.70
2019-04-03T11:19:44.354Z,31.80
2019-04-03T11:20:43.923Z,31.00
2019-04-03T11:21:45.011Z,32.00
2019-04-03T11:22:43.964Z,29.10
2019-04-03T11:23:45.307Z,30.40
2019-04-03T11:24:44.079Z,27.50
2019-04-03T11:25:45.916Z,29.60
2019-04-03T11:26:44.043Z,28.90
2019-04-03T11:27:45.600Z,29.10
2019-04-03T11:28:43.874Z,27.50
2019-04-03T11:29:43.855Z,29.30
2019-04-03T11:30:44.096Z,28.80
2019-04-03T11:31:43.796Z,30.90
2019-04-03T11:32:43.865Z,30.00
2019-04-03T11:33:45.608Z,32.60
2019-04-03T11:34:43.874Z,29.80
2019-04-03T11:35:43.754Z,30.20
2019-04-03T11:36:43.882Z,29.50
2019-04-03T11:37:43.789Z,30.10
2019-04-03T11:38:43.722Z,27.60
2019-04-03T11:39:45.661Z,29.80
2019-04-03T11:40:43.897Z,28.90
2019-04-03T11:41:43.692Z,29.00
2019-04-03T11:42:43.673Z,28.10
2019-04-03T11:43:43.702Z,30.30
2019-04-03T11:44:43.667Z,29.20
2019-04-03T11:45:43.661Z,29.60
2019-04-03T11:46:43.632Z,30.10
2019-04-03T11:47:45.859Z,31.00
2019-04-03T11:48:43.940Z,29.20
2019-04-03T11:49:43.618Z,29.90
2019-04-03T11:50:43.587Z,29.90
2019-04-03T11:51:43.582Z,31.00
2019-04-03T11:52:43.567Z,31.60
2019-04-03T11:53:45.511Z,31.20
2019-04-03T11:54:43.825Z,30.80
2019-04-03T11:55:43.533Z,30.70
2019-04-03T11:56:45.222Z,27.80
2019-04-03T11:57:43.522Z,29.00
2019-04-03T11:58:43.502Z,26.20
2019-04-03T11:59:43.953Z,27.20
2019-04-03T12:00:43.506Z,25.60
2019-04-03T12:01:43.472Z,27.20
2019-04-03T12:02:44.359Z,25.30
2019-04-03T12:03:43.456Z,26.90
2019-04-03T12:04:44.523Z,25.60
2019-04-03T12:05:44.037Z,27.90
2019-04-03T12:06:43.420Z,24.90
2019-04-03T12:07:43.462Z,24.80
2019-04-03T12:08:45.518Z,25.90
2019-04-03T12:09:43.386Z,26.70
2019-04-03T12:10:43.371Z,25.80
2019-04-03T12:11:43.741Z,27.00
2019-04-03T12:12:43.728Z,26.90
2019-04-03T12:13:45.643Z,28.40
2019-04-03T12:14:43.467Z,29.50
2019-04-03T12:15:43.323Z,28.80
2019-04-03T12:16:43.307Z,28.90
2019-04-03T12:17:43.408Z,28.10
2019-04-03T12:18:43.293Z,27.20
2019-04-03T12:19:45.476Z,24.80
2019-04-03T12:20:45.459Z,26.60
2019-04-03T12:21:43.499Z,25.20
2019-04-03T12:22:43.244Z,24.30
2019-04-03T12:23:43.262Z,25.50
2019-04-03T12:24:43.262Z,31.30
2019-04-03T12:25:43.210Z,29.80
2019-04-03T12:26:44.129Z,29.50
2019-04-03T12:27:45.974Z,27.50
2019-04-03T12:28:43.178Z,28.40
2019-04-03T12:29:43.305Z,28.90
2019-04-03T12:30:43.226Z,31.10
2019-04-03T12:31:43.152Z,27.70
2019-04-03T12:32:47.991Z,27.70
2019-04-03T12:33:53.961Z,24.30
2019-04-03T12:34:44.119Z,23.40
2019-04-03T12:35:43.127Z,23.60
2019-04-03T12:36:45.204Z,24.10
2019-04-03T12:37:43.532Z,25.60
2019-04-03T12:38:43.076Z,26.90
2019-04-03T12:39:43.063Z,27.70
2019-04-03T12:40:43.350Z,24.70
2019-04-03T12:41:43.661Z,25.50
2019-04-03T12:42:43.276Z,23.80
2019-04-03T12:43:43.028Z,24.00
2019-04-03T12:44:43.228Z,25.20
2019-04-03T12:45:42.994Z,24.80
2019-04-03T12:46:43.003Z,24.00
2019-04-03T12:47:44.583Z,24.20
2019-04-03T12:48:43.325Z,24.00
2019-04-03T12:49:43.379Z,24.90
2019-04-03T12:50:42.958Z,22.40
2019-04-03T12:51:43.315Z,24.40
2019-04-03T12:52:44.776Z,22.30